Weather reports worldwide

Advertisment
Madrid, Spain (8222): temperature & dewpoint: 12.01.2018 12:00:00 - 18.01.2018 12:00:00 (CET)Madrid, Spain (8222): wind speed & gusts: 12.01.2018 12:00:00 - 18.01.2018 12:00:00 (CET)Madrid, Spain (8222): wind direction: 12.01.2018 12:00:00 - 18.01.2018 12:00:00 (CET)Madrid, Spain (8222): reduced air pressure: 12.01.2018 12:00:00 - 18.01.2018 12:00:00 (CET)Madrid, Spain (8222): precipitation: 12.01.2018 12:00:00 - 18.01.2018 12:00:00 (CET)
Date & Time tt [°C] td [°C] ff [km/h] ff [kn] fx [km/h] fx [kn] dd ppp [hPa] rr [mm]
18.01.2018 12:00:00 - - - - - - - - -
18.01.2018 11:00:00 6,5 0,0 4 2 16 9 ENE 1026,1 0,0
18.01.2018 10:00:00 4,9 -0,3 8 4 19 10 NE 1026,3 0,0
18.01.2018 09:00:00 3,1 -0,7 6 4 14 8 NNE 1026,7 0,0
18.01.2018 08:00:00 3,9 -0,3 9 5 16 8 NE 1026,1 0,0
18.01.2018 07:00:00 3,7 0,0 3 1 16 8 ENE 1025,8 -
18.01.2018 06:00:00 3,9 0,4 6 4 15 8 NNE 1025,7 0,0
18.01.2018 05:00:00 4,2 0,2 5 3 18 10 N 1026,1 0,0
18.01.2018 04:00:00 4,4 0,4 6 4 14 8 NNE 1026,5 0,0
18.01.2018 03:00:00 4,8 0,6 3 1 15 8 NNE 1026,8 0,0
18.01.2018 02:00:00 5,5 0,9 4 2 12 6 ENE 1027,2 0,0
18.01.2018 01:00:00 6,1 0,6 5 3 14 8 E 1027,3 -
18.01.2018 00:00:00 6,5 0,2 1 0 19 10 E 1027,1 0,0
17.01.2018 23:00:00 8,3 0,4 7 4 21 11 ENE 1026,3 0,0
17.01.2018 22:00:00 8,9 0,6 8 5 22 12 NNE 1026,0 0,0
17.01.2018 21:00:00 9,6 1,1 10 6 19 10 NNE 1025,7 0,0
17.01.2018 20:00:00 10,4 0,9 8 4 23 13 NE 1025,6 0,0
17.01.2018 19:00:00 11,3 1,1 14 8 27 14 NNE 1025,2 -
17.01.2018 18:00:00 11,9 1,5 9 5 19 10 NNE 1024,8 0,0
17.01.2018 17:00:00 13,2 3,2 6 3 16 9 NNE 1024,0 0,0
17.01.2018 16:00:00 13,3 3,6 9 5 14 8 E 1023,6 0,0
17.01.2018 15:00:00 13,5 3,8 3 2 9 5 WSW 1023,5 0,0
17.01.2018 14:00:00 11,4 3,6 2 1 10 5 N 1024,5 0,0
17.01.2018 13:00:00 10,0 4,6 4 2 11 6 S 1025,7 -
17.01.2018 12:00:00 8,4 4,5 5 3 12 7 S 1026,8 0,0
17.01.2018 11:00:00 6,6 4,1 5 3 9 5 SE 1026,8 0,0
17.01.2018 10:00:00 5,2 3,8 3 2 10 5 WSW 1026,4 0,0
17.01.2018 09:00:00 4,8 3,2 4 2 10 6 SSE 1026,0 0,0
17.01.2018 08:00:00 5,4 3,6 8 4 11 6 E 1025,5 0,0
17.01.2018 07:00:00 5,5 3,4 5 3 16 9 ENE 1024,9 -
17.01.2018 06:00:00 6,3 2,9 8 4 18 10 NNE 1024,9 0,0
17.01.2018 05:00:00 9,3 4,5 10 5 24 13 W 1024,1 0,0
17.01.2018 04:00:00 8,3 4,1 5 3 16 9 WSW 1024,6 0,0
17.01.2018 03:00:00 9,5 4,3 8 4 24 13 WSW 1024,6 0,0
17.01.2018 02:00:00 10,4 5,0 10 5 31 17 WNW 1024,9 0,0
17.01.2018 01:00:00 9,3 5,3 8 4 22 12 WNW 1026,2 -
17.01.2018 00:00:00 8,8 5,8 11 6 23 13 W 1026,0 0,0
16.01.2018 23:00:00 7,3 5,1 8 5 17 9 W 1026,8 0,0
16.01.2018 22:00:00 7,1 4,6 8 4 15 8 W 1026,7 0,0
16.01.2018 21:00:00 7,9 4,6 8 4 15 8 SW 1026,2 0,0
16.01.2018 20:00:00 8,7 4,5 5 3 18 10 W 1026,1 0,0
16.01.2018 19:00:00 10,5 5,0 10 5 19 10 W 1025,5 -
16.01.2018 18:00:00 11,5 5,3 6 4 13 7 WSW 1025,0 0,0
16.01.2018 17:00:00 12,6 5,8 6 3 14 7 S 1024,7 0,0
16.01.2018 16:00:00 11,9 5,1 7 4 16 8 SE 1025,1 0,0
16.01.2018 15:00:00 11,0 4,3 6 4 13 7 SSE 1025,6 0,0
16.01.2018 14:00:00 8,9 3,0 2 1 13 7 SSW 1027,3 0,0
16.01.2018 13:00:00 7,5 1,9 4 2 14 7 SSW 1028,7 -
16.01.2018 12:00:00 6,4 1,3 5 3 13 7 S 1030,0 0,0
16.01.2018 11:00:00 5,2 1,3 4 2 10 6 ESE 1030,4 0,0
16.01.2018 10:00:00 3,4 0,9 4 2 10 5 ESE 1030,6 0,0
16.01.2018 09:00:00 2,6 0,9 4 2 10 5 ESE 1029,8 0,0
16.01.2018 08:00:00 2,5 0,4 1 1 9 5 E 1029,6 0,0
16.01.2018 07:00:00 2,4 0,2 2 1 6 3 E 1029,0 -
16.01.2018 06:00:00 2,7 0,2 0 0 7 4 SSE 1028,7 0,0
16.01.2018 05:00:00 3,4 0,6 1 1 7 4 SSW 1028,3 0,0
16.01.2018 04:00:00 3,3 0,2 2 1 8 4 SW 1028,8 0,0
16.01.2018 03:00:00 3,4 0,0 5 3 14 8 SW 1028,7 0,0
16.01.2018 02:00:00 3,1 -1,0 3 2 8 4 WSW 1029,1 0,0
16.01.2018 01:00:00 3,4 -1,0 5 3 10 6 SSW 1029,3 -
16.01.2018 00:00:00 4,0 -1,0 6 3 12 7 SSW 1029,6 0,0
15.01.2018 23:00:00 4,5 -0,7 6 3 14 7 SSW 1028,8 0,0
15.01.2018 22:00:00 4,3 -0,5 5 3 11 6 SW 1029,1 0,0
15.01.2018 21:00:00 5,5 0,2 6 3 16 9 SSW 1028,3 0,0
15.01.2018 20:00:00 6,0 0,4 3 2 17 9 SW 1027,7 0,0
15.01.2018 19:00:00 7,3 0,9 7 4 18 10 SW 1026,8 -
15.01.2018 18:00:00 7,6 0,6 9 5 21 11 SW 1026,8 0,0
15.01.2018 17:00:00 8,4 0,9 9 5 23 12 WSW 1026,1 0,0
15.01.2018 16:00:00 8,4 0,4 10 5 18 10 SW 1025,6 0,0
15.01.2018 15:00:00 8,3 -0,5 7 4 16 9 WSW 1025,8 0,0
15.01.2018 14:00:00 6,7 0,2 4 2 15 8 SW 1026,5 0,0
15.01.2018 13:00:00 5,6 -1,0 4 2 11 6 S 1027,4 -
15.01.2018 12:00:00 5,0 -0,5 6 3 11 6 SSE 1028,4 0,0
15.01.2018 11:00:00 3,7 -0,3 5 3 10 6 SSE 1028,4 0,0
15.01.2018 10:00:00 1,6 0,2 0 0 5 3 ESE 1028,2 0,0
15.01.2018 09:00:00 0,5 -1,0 3 2 5 3 ESE 1027,5 0,0
15.01.2018 08:00:00 0,4 -1,0 1 0 6 3 SSE 1026,7 0,0
15.01.2018 07:00:00 0,5 -1,2 0 0 6 3 NNE 1026,5 -
15.01.2018 06:00:00 0,8 -1,2 3 1 5 3 SSW 1025,8 0,0
15.01.2018 05:00:00 0,8 -1,7 1 0 6 3 ENE 1025,8 0,0
15.01.2018 04:00:00 1,9 -1,4 4 2 9 5 SE 1024,7 0,0
15.01.2018 03:00:00 2,3 -2,0 3 2 10 6 ENE 1023,9 0,0
15.01.2018 02:00:00 3,5 -1,4 5 3 17 9 NE 1023,4 0,0
15.01.2018 01:00:00 3,9 -1,4 9 5 21 11 NNE 1023,7 -
15.01.2018 00:00:00 4,2 -1,4 10 5 18 10 NNE 1023,5 0,0
14.01.2018 23:00:00 4,4 -1,0 10 5 22 12 NNE 1022,6 0,0
14.01.2018 22:00:00 4,8 -0,5 11 6 22 12 NNE 1022,3 0,0
14.01.2018 21:00:00 4,7 0,9 9 5 16 8 NNE 1021,8 0,0
14.01.2018 20:00:00 5,0 0,4 4 2 16 8 ENE 1020,8 0,0
14.01.2018 19:00:00 4,8 0,2 5 3 13 7 NE 1019,9 -
14.01.2018 18:00:00 5,7 0,0 7 4 14 8 NNE 1019,0 0,0
14.01.2018 17:00:00 6,1 -0,3 4 2 11 6 NNE 1018,2 0,0
14.01.2018 16:00:00 6,3 0,0 5 3 13 7 E 1017,6 0,0
14.01.2018 15:00:00 5,4 1,3 6 3 14 8 ESE 1018,1 0,0
14.01.2018 14:00:00 5,7 1,7 6 3 14 8 E 1018,3 0,0
14.01.2018 13:00:00 5,7 1,9 3 1 12 7 S 1018,4 -
14.01.2018 12:00:00 4,6 2,1 6 4 13 7 E 1019,7 0,0
14.01.2018 11:00:00 4,4 2,7 4 2 8 4 N 1019,3 0,0
14.01.2018 10:00:00 3,4 2,3 4 2 11 6 WNW 1019,2 0,0
14.01.2018 09:00:00 3,2 2,1 4 2 14 8 WNW 1019,0 0,0
14.01.2018 08:00:00 3,1 2,3 8 4 20 11 W 1018,6 0,0
14.01.2018 07:00:00 3,1 2,3 8 4 15 8 W 1018,4 -
14.01.2018 06:00:00 3,1 2,3 5 3 19 10 W 1018,5 0,0
14.01.2018 05:00:00 3,1 2,3 10 5 21 11 W 1018,7 0,0
14.01.2018 04:00:00 2,8 1,9 9 5 19 11 W 1019,1 0,0
14.01.2018 03:00:00 2,7 1,9 6 3 19 10 W 1019,1 0,0
14.01.2018 02:00:00 2,8 1,9 7 4 19 10 W 1019,4 0,0
14.01.2018 01:00:00 2,9 2,1 3 2 19 11 SW 1019,5 -
14.01.2018 00:00:00 2,9 2,3 9 5 23 12 WSW 1019,7 0,0
13.01.2018 23:00:00 2,7 2,1 9 5 26 14 W 1019,3 0,0
13.01.2018 22:00:00 2,6 2,1 8 4 23 12 WSW 1018,9 0,0
13.01.2018 21:00:00 2,4 1,5 7 4 15 8 W 1019,1 0,0
13.01.2018 20:00:00 2,6 1,7 5 3 13 7 W 1018,5 0,0
13.01.2018 19:00:00 2,8 1,9 4 2 11 6 W 1018,2 -
13.01.2018 18:00:00 2,9 1,9 4 2 12 7 SSW 1017,7 0,8
13.01.2018 17:00:00 3,1 2,1 4 2 8 4 WSW 1017,8 1,3
13.01.2018 16:00:00 3,5 2,1 3 2 8 4 ESE 1016,8 1,2
13.01.2018 15:00:00 3,9 2,1 2 1 12 6 W 1017,4 1,2
13.01.2018 14:00:00 4,5 1,5 4 2 9 5 S 1017,9 0,7
13.01.2018 13:00:00 5,1 0,4 1 1 13 7 WSW 1018,3 -
13.01.2018 12:00:00 5,1 0,6 6 3 14 8 ESE 1019,3 0,0
13.01.2018 11:00:00 4,1 0,6 6 3 11 6 ESE 1019,7 0,0
13.01.2018 10:00:00 3,1 0,0 5 3 8 5 ENE 1020,1 0,0
13.01.2018 09:00:00 3,1 0,2 4 2 11 6 E 1019,9 0,0
13.01.2018 08:00:00 3,1 0,4 5 3 11 6 E 1020,1 0,0
13.01.2018 07:00:00 3,1 0,4 5 3 9 5 ENE 1020,0 -
13.01.2018 06:00:00 3,0 0,6 5 3 7 4 E 1020,4 0,0
13.01.2018 05:00:00 3,2 0,4 4 2 7 4 SE 1020,7 0,0
13.01.2018 04:00:00 3,5 0,6 4 2 6 3 ESE 1021,6 0,0
13.01.2018 03:00:00 3,3 0,4 3 1 6 3 SSE 1022,0 0,0
13.01.2018 02:00:00 3,6 0,2 3 2 7 4 SSW 1022,6 0,0
13.01.2018 01:00:00 3,8 0,0 3 2 8 5 SSW 1023,0 -
13.01.2018 00:00:00 4,2 -0,5 5 3 10 6 S 1023,4 0,0
12.01.2018 23:00:00 5,1 0,0 3 2 10 5 S 1023,5 0,0
12.01.2018 22:00:00 5,4 -0,5 3 2 8 4 SSW 1023,8 0,0
12.01.2018 21:00:00 5,7 -1,2 3 2 10 5 S 1023,7 0,0
12.01.2018 20:00:00 6,4 -1,0 1 1 14 8 SSW 1023,3 0,0
12.01.2018 19:00:00 7,0 -0,7 6 3 16 9 WSW 1023,8 -
12.01.2018 18:00:00 7,5 -0,3 6 3 14 7 SW 1023,4 0,0
12.01.2018 17:00:00 8,3 0,0 4 2 9 5 SW 1023,3 0,0
12.01.2018 16:00:00 8,2 0,2 2 1 10 5 S 1023,1 0,0
12.01.2018 15:00:00 7,8 0,2 3 2 13 7 S 1023,7 0,0
12.01.2018 14:00:00 7,0 -0,3 5 3 11 6 S 1024,5 0,0
12.01.2018 13:00:00 6,5 0,0 3 2 11 6 S 1025,6 -
12.01.2018 12:00:00 5,6 0,0 4 2 13 7 S 1026,8 0,0

tt = temperature
td = dewpoint
ff = wind speed
fx = gusts
dd = wind direction
ppp = reduced air pressure
rr = precipitation

Next stations